sensor_id;sensor_type;location;lat;lon;timestamp;temperature;humidity
59961;DHT22;55902;-37.980;-63.602;2023-02-01T00:02:14;19.30;99.90
59961;DHT22;55902;-37.980;-63.602;2023-02-01T00:05:07;19.30;99.90
59961;DHT22;55902;-37.980;-63.602;2023-02-01T00:07:35;19.20;99.90
59961;DHT22;55902;-37.980;-63.602;2023-02-01T00:10:03;19.20;99.90
59961;DHT22;55902;-37.980;-63.602;2023-02-01T00:12:34;19.20;99.90
59961;DHT22;55902;-37.980;-63.602;2023-02-01T00:15:01;19.20;99.90
59961;DHT22;55902;-37.980;-63.602;2023-02-01T00:17:28;19.10;99.90
59961;DHT22;55902;-37.980;-63.602;2023-02-01T00:19:55;19.10;99.90
59961;DHT22;55902;-37.980;-63.602;2023-02-01T00:22:22;19.10;99.90
59961;DHT22;55902;-37.980;-63.602;2023-02-01T00:24:49;19.00;99.90
59961;DHT22;55902;-37.980;-63.602;2023-02-01T00:27:22;19.00;99.90
59961;DHT22;55902;-37.980;-63.602;2023-02-01T00:29:49;18.90;99.90
59961;DHT22;55902;-37.980;-63.602;2023-02-01T00:32:16;18.80;99.90
59961;DHT22;55902;-37.980;-63.602;2023-02-01T00:34:43;18.80;99.90
59961;DHT22;55902;-37.980;-63.602;2023-02-01T00:37:10;18.70;99.90
59961;DHT22;55902;-37.980;-63.602;2023-02-01T00:39:39;18.70;99.90
59961;DHT22;55902;-37.980;-63.602;2023-02-01T00:42:08;18.70;99.90
59961;DHT22;55902;-37.980;-63.602;2023-02-01T00:44:36;18.70;99.90
59961;DHT22;55902;-37.980;-63.602;2023-02-01T00:47:06;18.60;99.90
59961;DHT22;55902;-37.980;-63.602;2023-02-01T00:49:36;18.60;99.90
59961;DHT22;55902;-37.980;-63.602;2023-02-01T00:52:03;18.60;99.90
59961;DHT22;55902;-37.980;-63.602;2023-02-01T00:54:33;18.60;99.90
59961;DHT22;55902;-37.980;-63.602;2023-02-01T00:57:03;18.60;99.90
59961;DHT22;55902;-37.980;-63.602;2023-02-01T00:59:33;18.60;99.90
59961;DHT22;55902;-37.980;-63.602;2023-02-01T01:02:00;18.60;99.90
59961;DHT22;55902;-37.980;-63.602;2023-02-01T01:04:27;18.60;99.90
59961;DHT22;55902;-37.980;-63.602;2023-02-01T01:06:54;18.60;99.90
59961;DHT22;55902;-37.980;-63.602;2023-02-01T01:09:23;18.50;99.90
59961;DHT22;55902;-37.980;-63.602;2023-02-01T01:11:50;18.60;99.90
59961;DHT22;55902;-37.980;-63.602;2023-02-01T01:14:18;18.50;99.90
59961;DHT22;55902;-37.980;-63.602;2023-02-01T01:16:45;18.50;99.90
59961;DHT22;55902;-37.980;-63.602;2023-02-01T01:19:12;18.50;99.90
59961;DHT22;55902;-37.980;-63.602;2023-02-01T01:21:39;18.50;99.90
59961;DHT22;55902;-37.980;-63.602;2023-02-01T01:24:06;18.50;99.90
59961;DHT22;55902;-37.980;-63.602;2023-02-01T01:26:36;18.50;99.90
59961;DHT22;55902;-37.980;-63.602;2023-02-01T01:29:03;18.50;99.90
59961;DHT22;55902;-37.980;-63.602;2023-02-01T01:31:33;18.50;99.90
59961;DHT22;55902;-37.980;-63.602;2023-02-01T01:34:00;18.60;99.90
59961;DHT22;55902;-37.980;-63.602;2023-02-01T01:36:28;18.60;99.90
59961;DHT22;55902;-37.980;-63.602;2023-02-01T01:38:55;18.60;99.90
59961;DHT22;55902;-37.980;-63.602;2023-02-01T01:41:29;18.70;99.90
59961;DHT22;55902;-37.980;-63.602;2023-02-01T01:44:53;18.80;99.90
59961;DHT22;55902;-37.980;-63.602;2023-02-01T01:46:56;18.80;99.90
59961;DHT22;55902;-37.980;-63.602;2023-02-01T01:49:27;18.80;99.90
59961;DHT22;55902;-37.980;-63.602;2023-02-01T01:52:00;18.90;99.90
59961;DHT22;55902;-37.980;-63.602;2023-02-01T01:54:37;18.90;99.90
59961;DHT22;55902;-37.980;-63.602;2023-02-01T01:57:11;18.90;99.90
59961;DHT22;55902;-37.980;-63.602;2023-02-01T01:59:44;18.90;99.90
59961;DHT22;55902;-37.980;-63.602;2023-02-01T02:02:13;18.90;99.90
59961;DHT22;55902;-37.980;-63.602;2023-02-01T02:04:43;18.90;99.90
59961;DHT22;55902;-37.980;-63.602;2023-02-01T02:07:16;18.90;99.90
59961;DHT22;55902;-37.980;-63.602;2023-02-01T02:09:44;18.90;99.90
59961;DHT22;55902;-37.980;-63.602;2023-02-01T02:12:11;18.90;99.90
59961;DHT22;55902;-37.980;-63.602;2023-02-01T02:14:38;19.00;99.90
59961;DHT22;55902;-37.980;-63.602;2023-02-01T02:36:43;18.90;99.90
59961;DHT22;55902;-37.980;-63.602;2023-02-01T02:42:13;18.80;99.90
59961;DHT22;55902;-37.980;-63.602;2023-02-01T02:45:04;18.80;99.90
59961;DHT22;55902;-37.980;-63.602;2023-02-01T02:48:04;18.80;99.90
59961;DHT22;55902;-37.980;-63.602;2023-02-01T02:50:42;18.80;99.90
59961;DHT22;55902;-37.980;-63.602;2023-02-01T02:53:38;18.80;99.90
59961;DHT22;55902;-37.980;-63.602;2023-02-01T02:56:26;18.70;99.90
59961;DHT22;55902;-37.980;-63.602;2023-02-01T02:59:14;18.70;99.90
59961;DHT22;55902;-37.980;-63.602;2023-02-01T03:02:04;18.70;99.90
59961;DHT22;55902;-37.980;-63.602;2023-02-01T03:04:56;18.70;99.90
59961;DHT22;55902;-37.980;-63.602;2023-02-01T03:13:08;18.60;99.90
59961;DHT22;55902;-37.980;-63.602;2023-02-01T03:15:57;18.70;99.90
59961;DHT22;55902;-37.980;-63.602;2023-02-01T03:18:45;18.70;99.90
59961;DHT22;55902;-37.980;-63.602;2023-02-01T03:21:57;18.60;99.90
59961;DHT22;55902;-37.980;-63.602;2023-02-01T03:24:53;18.70;99.90
59961;DHT22;55902;-37.980;-63.602;2023-02-01T03:27:34;18.60;99.90
59961;DHT22;55902;-37.980;-63.602;2023-02-01T03:32:36;18.60;99.90
59961;DHT22;55902;-37.980;-63.602;2023-02-01T03:35:48;18.60;99.90
59961;DHT22;55902;-37.980;-63.602;2023-02-01T03:43:35;18.60;99.90
59961;DHT22;55902;-37.980;-63.602;2023-02-01T03:46:09;18.60;99.90
59961;DHT22;55902;-37.980;-63.602;2023-02-01T03:48:42;18.70;99.90
59961;DHT22;55902;-37.980;-63.602;2023-02-01T03:51:11;18.70;99.90
59961;DHT22;55902;-37.980;-63.602;2023-02-01T03:53:40;18.70;99.90
59961;DHT22;55902;-37.980;-63.602;2023-02-01T03:56:10;18.70;99.90
59961;DHT22;55902;-37.980;-63.602;2023-02-01T03:58:38;18.70;99.90
59961;DHT22;55902;-37.980;-63.602;2023-02-01T04:01:04;18.80;99.90
59961;DHT22;55902;-37.980;-63.602;2023-02-01T04:03:35;18.80;99.90
59961;DHT22;55902;-37.980;-63.602;2023-02-01T04:06:02;18.80;99.90
59961;DHT22;55902;-37.980;-63.602;2023-02-01T04:08:29;18.80;99.90
59961;DHT22;55902;-37.980;-63.602;2023-02-01T04:10:56;18.80;99.90
59961;DHT22;55902;-37.980;-63.602;2023-02-01T04:13:23;18.80;99.90
59961;DHT22;55902;-37.980;-63.602;2023-02-01T04:15:49;18.80;99.90
59961;DHT22;55902;-37.980;-63.602;2023-02-01T04:18:16;18.80;99.90
59961;DHT22;55902;-37.980;-63.602;2023-02-01T04:20:43;18.80;99.90
59961;DHT22;55902;-37.980;-63.602;2023-02-01T04:23:13;18.80;99.90
59961;DHT22;55902;-37.980;-63.602;2023-02-01T04:25:42;18.70;99.90
59961;DHT22;55902;-37.980;-63.602;2023-02-01T04:28:08;18.70;99.90
59961;DHT22;55902;-37.980;-63.602;2023-02-01T04:30:35;18.70;99.90
59961;DHT22;55902;-37.980;-63.602;2023-02-01T04:33:05;18.70;99.90
59961;DHT22;55902;-37.980;-63.602;2023-02-01T04:35:32;18.60;99.90
59961;DHT22;55902;-37.980;-63.602;2023-02-01T04:38:00;18.60;99.90
59961;DHT22;55902;-37.980;-63.602;2023-02-01T04:40:26;18.60;99.90
59961;DHT22;55902;-37.980;-63.602;2023-02-01T04:42:53;18.60;99.90
59961;DHT22;55902;-37.980;-63.602;2023-02-01T04:45:23;18.60;99.90
59961;DHT22;55902;-37.980;-63.602;2023-02-01T04:47:50;18.60;99.90
59961;DHT22;55902;-37.980;-63.602;2023-02-01T05:03:23;18.70;99.90
59961;DHT22;55902;-37.980;-63.602;2023-02-01T05:05:53;18.70;99.90
59961;DHT22;55902;-37.980;-63.602;2023-02-01T05:08:20;18.70;99.90
59961;DHT22;55902;-37.980;-63.602;2023-02-01T05:10:48;18.70;99.90
59961;DHT22;55902;-37.980;-63.602;2023-02-01T05:13:15;18.70;99.90
59961;DHT22;55902;-37.980;-63.602;2023-02-01T05:16:00;18.70;99.90
59961;DHT22;55902;-37.980;-63.602;2023-02-01T05:18:27;18.70;99.90
59961;DHT22;55902;-37.980;-63.602;2023-02-01T05:20:58;18.70;99.90
59961;DHT22;55902;-37.980;-63.602;2023-02-01T05:23:24;18.70;99.90
59961;DHT22;55902;-37.980;-63.602;2023-02-01T05:26:04;18.80;99.90
59961;DHT22;55902;-37.980;-63.602;2023-02-01T05:28:31;18.80;99.90
59961;DHT22;55902;-37.980;-63.602;2023-02-01T05:30:57;18.80;99.90
59961;DHT22;55902;-37.980;-63.602;2023-02-01T05:33:27;18.80;99.90
59961;DHT22;55902;-37.980;-63.602;2023-02-01T05:35:57;18.80;99.90
59961;DHT22;55902;-37.980;-63.602;2023-02-01T05:38:24;18.80;99.90
59961;DHT22;55902;-37.980;-63.602;2023-02-01T05:40:51;18.80;99.90
59961;DHT22;55902;-37.980;-63.602;2023-02-01T05:43:18;18.80;99.90
59961;DHT22;55902;-37.980;-63.602;2023-02-01T05:45:45;18.80;99.90
59961;DHT22;55902;-37.980;-63.602;2023-02-01T05:48:12;18.80;99.90
59961;DHT22;55902;-37.980;-63.602;2023-02-01T05:50:38;18.70;99.90
59961;DHT22;55902;-37.980;-63.602;2023-02-01T05:53:05;18.70;99.90
59961;DHT22;55902;-37.980;-63.602;2023-02-01T05:55:33;18.80;99.90
59961;DHT22;55902;-37.980;-63.602;2023-02-01T05:57:59;18.80;99.90
59961;DHT22;55902;-37.980;-63.602;2023-02-01T06:00:29;18.80;99.90
59961;DHT22;55902;-37.980;-63.602;2023-02-01T06:02:56;18.80;99.90
59961;DHT22;55902;-37.980;-63.602;2023-02-01T06:05:23;18.80;99.90
59961;DHT22;55902;-37.980;-63.602;2023-02-01T06:07:50;18.80;99.90
59961;DHT22;55902;-37.980;-63.602;2023-02-01T06:10:18;18.80;99.90
59961;DHT22;55902;-37.980;-63.602;2023-02-01T06:12:45;18.80;99.90
59961;DHT22;55902;-37.980;-63.602;2023-02-01T06:15:13;18.70;99.90
59961;DHT22;55902;-37.980;-63.602;2023-02-01T06:17:45;18.70;99.90
59961;DHT22;55902;-37.980;-63.602;2023-02-01T06:20:14;18.70;99.90
59961;DHT22;55902;-37.980;-63.602;2023-02-01T06:22:42;18.70;99.90
59961;DHT22;55902;-37.980;-63.602;2023-02-01T06:25:12;18.60;99.90
59961;DHT22;55902;-37.980;-63.602;2023-02-01T06:27:39;18.70;99.90
59961;DHT22;55902;-37.980;-63.602;2023-02-01T06:30:07;18.70;99.90
59961;DHT22;55902;-37.980;-63.602;2023-02-01T06:39:17;18.70;99.90
59961;DHT22;55902;-37.980;-63.602;2023-02-01T06:41:48;18.70;99.90
59961;DHT22;55902;-37.980;-63.602;2023-02-01T06:44:18;18.70;99.90
59961;DHT22;55902;-37.980;-63.602;2023-02-01T06:46:44;18.70;99.90
59961;DHT22;55902;-37.980;-63.602;2023-02-01T06:49:11;18.70;99.90
59961;DHT22;55902;-37.980;-63.602;2023-02-01T06:51:42;18.80;99.90
59961;DHT22;55902;-37.980;-63.602;2023-02-01T06:54:09;18.80;99.90
59961;DHT22;55902;-37.980;-63.602;2023-02-01T06:56:36;18.80;99.90
59961;DHT22;55902;-37.980;-63.602;2023-02-01T06:59:06;18.80;99.90
59961;DHT22;55902;-37.980;-63.602;2023-02-01T07:01:34;18.80;99.90
59961;DHT22;55902;-37.980;-63.602;2023-02-01T07:04:01;18.80;99.90
59961;DHT22;55902;-37.980;-63.602;2023-02-01T07:06:28;18.80;99.90
59961;DHT22;55902;-37.980;-63.602;2023-02-01T07:08:55;18.90;99.90
59961;DHT22;55902;-37.980;-63.602;2023-02-01T07:11:22;18.90;99.90
59961;DHT22;55902;-37.980;-63.602;2023-02-01T07:13:49;18.90;99.90
59961;DHT22;55902;-37.980;-63.602;2023-02-01T07:16:18;18.90;99.90
59961;DHT22;55902;-37.980;-63.602;2023-02-01T07:21:25;18.90;99.90
59961;DHT22;55902;-37.980;-63.602;2023-02-01T07:23:54;18.80;99.90
59961;DHT22;55902;-37.980;-63.602;2023-02-01T07:26:21;18.90;99.90
59961;DHT22;55902;-37.980;-63.602;2023-02-01T07:28:48;18.90;99.90
59961;DHT22;55902;-37.980;-63.602;2023-02-01T07:31:17;18.90;99.90
59961;DHT22;55902;-37.980;-63.602;2023-02-01T07:33:47;18.90;99.90
59961;DHT22;55902;-37.980;-63.602;2023-02-01T07:36:18;18.90;99.90
59961;DHT22;55902;-37.980;-63.602;2023-02-01T07:38:45;18.90;99.90
59961;DHT22;55902;-37.980;-63.602;2023-02-01T07:41:16;18.90;99.90
59961;DHT22;55902;-37.980;-63.602;2023-02-01T07:43:44;18.90;99.90
59961;DHT22;55902;-37.980;-63.602;2023-02-01T07:46:11;18.90;99.90
59961;DHT22;55902;-37.980;-63.602;2023-02-01T07:48:38;18.90;99.90
59961;DHT22;55902;-37.980;-63.602;2023-02-01T07:51:10;18.90;99.90
59961;DHT22;55902;-37.980;-63.602;2023-02-01T07:53:41;18.90;99.90
59961;DHT22;55902;-37.980;-63.602;2023-02-01T07:56:17;18.90;99.90
59961;DHT22;55902;-37.980;-63.602;2023-02-01T07:58:53;18.90;99.90
59961;DHT22;55902;-37.980;-63.602;2023-02-01T08:01:27;18.90;99.90
59961;DHT22;55902;-37.980;-63.602;2023-02-01T08:04:01;18.90;99.90
59961;DHT22;55902;-37.980;-63.602;2023-02-01T08:06:31;18.90;99.90
59961;DHT22;55902;-37.980;-63.602;2023-02-01T08:08:58;18.90;99.90
59961;DHT22;55902;-37.980;-63.602;2023-02-01T08:11:25;18.90;99.90
59961;DHT22;55902;-37.980;-63.602;2023-02-01T08:13:52;18.90;99.90
59961;DHT22;55902;-37.980;-63.602;2023-02-01T08:16:20;18.90;99.90
59961;DHT22;55902;-37.980;-63.602;2023-02-01T08:18:48;18.90;99.90
59961;DHT22;55902;-37.980;-63.602;2023-02-01T08:21:26;18.80;99.90
59961;DHT22;55902;-37.980;-63.602;2023-02-01T08:24:04;18.80;99.90
59961;DHT22;55902;-37.980;-63.602;2023-02-01T08:26:31;18.80;99.90
59961;DHT22;55902;-37.980;-63.602;2023-02-01T08:29:00;18.80;99.90
59961;DHT22;55902;-37.980;-63.602;2023-02-01T08:31:31;18.80;99.90
59961;DHT22;55902;-37.980;-63.602;2023-02-01T08:34:00;18.80;99.90
59961;DHT22;55902;-37.980;-63.602;2023-02-01T08:36:29;18.80;99.90
59961;DHT22;55902;-37.980;-63.602;2023-02-01T08:38:59;18.80;99.90
59961;DHT22;55902;-37.980;-63.602;2023-02-01T08:41:28;18.80;99.90
59961;DHT22;55902;-37.980;-63.602;2023-02-01T08:43:56;18.80;99.90
59961;DHT22;55902;-37.980;-63.602;2023-02-01T08:46:24;18.80;99.90
59961;DHT22;55902;-37.980;-63.602;2023-02-01T08:48:54;18.80;99.90
59961;DHT22;55902;-37.980;-63.602;2023-02-01T08:51:22;18.80;99.90
59961;DHT22;55902;-37.980;-63.602;2023-02-01T08:53:50;18.90;99.90
59961;DHT22;55902;-37.980;-63.602;2023-02-01T08:56:18;18.80;99.90
59961;DHT22;55902;-37.980;-63.602;2023-02-01T08:58:45;18.80;99.90
59961;DHT22;55902;-37.980;-63.602;2023-02-01T09:01:15;18.80;99.90
59961;DHT22;55902;-37.980;-63.602;2023-02-01T09:03:43;18.80;99.90
59961;DHT22;55902;-37.980;-63.602;2023-02-01T09:06:14;18.80;99.90
59961;DHT22;55902;-37.980;-63.602;2023-02-01T09:08:41;18.80;99.90
59961;DHT22;55902;-37.980;-63.602;2023-02-01T09:11:13;18.80;99.90
59961;DHT22;55902;-37.980;-63.602;2023-02-01T09:13:44;18.80;99.90
59961;DHT22;55902;-37.980;-63.602;2023-02-01T09:16:11;18.80;99.90
59961;DHT22;55902;-37.980;-63.602;2023-02-01T09:18:38;18.80;99.90
59961;DHT22;55902;-37.980;-63.602;2023-02-01T09:21:09;18.80;99.90
59961;DHT22;55902;-37.980;-63.602;2023-02-01T09:43:57;19.00;99.90
59961;DHT22;55902;-37.980;-63.602;2023-02-01T09:46:32;19.00;99.90
59961;DHT22;55902;-37.980;-63.602;2023-02-01T09:49:19;19.10;99.90
59961;DHT22;55902;-37.980;-63.602;2023-02-01T09:51:49;19.10;99.90
59961;DHT22;55902;-37.980;-63.602;2023-02-01T09:54:24;19.10;99.90
59961;DHT22;55902;-37.980;-63.602;2023-02-01T09:59:41;19.20;99.90
59961;DHT22;55902;-37.980;-63.602;2023-02-01T10:02:27;19.30;99.90
59961;DHT22;55902;-37.980;-63.602;2023-02-01T10:05:00;19.30;99.90
59961;DHT22;55902;-37.980;-63.602;2023-02-01T10:10:39;19.30;99.90
59961;DHT22;55902;-37.980;-63.602;2023-02-01T10:16:13;19.40;99.90
59961;DHT22;55902;-37.980;-63.602;2023-02-01T10:21:57;19.40;99.90
59961;DHT22;55902;-37.980;-63.602;2023-02-01T10:27:19;19.50;99.90
59961;DHT22;55902;-37.980;-63.602;2023-02-01T10:29:52;19.50;99.90
59961;DHT22;55902;-37.980;-63.602;2023-02-01T10:32:32;19.50;99.90
59961;DHT22;55902;-37.980;-63.602;2023-02-01T10:35:22;19.50;99.90
59961;DHT22;55902;-37.980;-63.602;2023-02-01T10:37:50;19.60;99.90
59961;DHT22;55902;-37.980;-63.602;2023-02-01T10:40:25;19.60;99.90
59961;DHT22;55902;-37.980;-63.602;2023-02-01T10:42:53;19.60;99.90
59961;DHT22;55902;-37.980;-63.602;2023-02-01T10:45:24;19.60;99.90
59961;DHT22;55902;-37.980;-63.602;2023-02-01T10:47:54;19.60;99.90
59961;DHT22;55902;-37.980;-63.602;2023-02-01T10:50:41;19.60;99.90
59961;DHT22;55902;-37.980;-63.602;2023-02-01T10:53:21;19.70;99.90
59961;DHT22;55902;-37.980;-63.602;2023-02-01T10:55:52;19.70;99.90
59961;DHT22;55902;-37.980;-63.602;2023-02-01T10:58:31;19.80;99.90
59961;DHT22;55902;-37.980;-63.602;2023-02-01T11:01:21;19.80;99.90
59961;DHT22;55902;-37.980;-63.602;2023-02-01T11:03:55;19.90;99.90
59961;DHT22;55902;-37.980;-63.602;2023-02-01T11:06:38;19.90;99.90
59961;DHT22;55902;-37.980;-63.602;2023-02-01T11:12:36;20.00;99.90
59961;DHT22;55902;-37.980;-63.602;2023-02-01T11:15:27;20.00;99.90
59961;DHT22;55902;-37.980;-63.602;2023-02-01T11:17:54;20.00;99.90
59961;DHT22;55902;-37.980;-63.602;2023-02-01T11:20:41;20.00;99.90
59961;DHT22;55902;-37.980;-63.602;2023-02-01T11:23:19;20.10;99.90
59961;DHT22;55902;-37.980;-63.602;2023-02-01T11:26:54;20.10;99.90
59961;DHT22;55902;-37.980;-63.602;2023-02-01T11:29:17;20.20;99.90
59961;DHT22;55902;-37.980;-63.602;2023-02-01T11:31:48;20.20;99.90
59961;DHT22;55902;-37.980;-63.602;2023-02-01T11:34:22;20.20;99.90
59961;DHT22;55902;-37.980;-63.602;2023-02-01T11:36:51;20.20;99.90
59961;DHT22;55902;-37.980;-63.602;2023-02-01T11:39:34;20.30;99.90
59961;DHT22;55902;-37.980;-63.602;2023-02-01T11:42:16;20.30;99.90
59961;DHT22;55902;-37.980;-63.602;2023-02-01T11:45:31;20.30;99.90
59961;DHT22;55902;-37.980;-63.602;2023-02-01T11:48:01;20.30;99.90
59961;DHT22;55902;-37.980;-63.602;2023-02-01T11:57:07;20.50;99.90
59961;DHT22;55902;-37.980;-63.602;2023-02-01T11:59:49;20.60;99.90
59961;DHT22;55902;-37.980;-63.602;2023-02-01T12:08:15;20.90;99.90
59961;DHT22;55902;-37.980;-63.602;2023-02-01T12:10:50;20.90;99.90
59961;DHT22;55902;-37.980;-63.602;2023-02-01T12:17:03;20.90;99.90
59961;DHT22;55902;-37.980;-63.602;2023-02-01T12:20:09;20.90;99.90
59961;DHT22;55902;-37.980;-63.602;2023-02-01T12:26:11;20.90;99.90
59961;DHT22;55902;-37.980;-63.602;2023-02-01T12:31:52;20.90;99.90
59961;DHT22;55902;-37.980;-63.602;2023-02-01T12:52:00;20.90;99.90
59961;DHT22;55902;-37.980;-63.602;2023-02-01T12:54:43;20.90;99.90
59961;DHT22;55902;-37.980;-63.602;2023-02-01T12:57:17;21.00;99.90
59961;DHT22;55902;-37.980;-63.602;2023-02-01T13:00:30;21.00;99.90
59961;DHT22;55902;-37.980;-63.602;2023-02-01T13:05:50;21.00;99.90
59961;DHT22;55902;-37.980;-63.602;2023-02-01T13:09:04;20.90;99.90
59961;DHT22;55902;-37.980;-63.602;2023-02-01T13:11:28;20.90;99.90
59961;DHT22;55902;-37.980;-63.602;2023-02-01T13:14:32;20.90;99.90
59961;DHT22;55902;-37.980;-63.602;2023-02-01T13:17:14;21.00;99.90
59961;DHT22;55902;-37.980;-63.602;2023-02-01T13:22:24;21.20;99.90
59961;DHT22;55902;-37.980;-63.602;2023-02-01T13:25:04;21.30;99.90
59961;DHT22;55902;-37.980;-63.602;2023-02-01T13:27:36;21.40;99.90
59961;DHT22;55902;-37.980;-63.602;2023-02-01T13:30:18;21.60;99.90
59961;DHT22;55902;-37.980;-63.602;2023-02-01T13:36:00;21.70;99.90
59961;DHT22;55902;-37.980;-63.602;2023-02-01T13:39:23;21.70;99.90
59961;DHT22;55902;-37.980;-63.602;2023-02-01T13:41:41;21.90;99.90
59961;DHT22;55902;-37.980;-63.602;2023-02-01T13:44:30;22.20;99.90
59961;DHT22;55902;-37.980;-63.602;2023-02-01T13:47:02;22.40;99.90
59961;DHT22;55902;-37.980;-63.602;2023-02-01T13:49:37;22.60;99.90
59961;DHT22;55902;-37.980;-63.602;2023-02-01T13:52:05;22.70;99.90
59961;DHT22;55902;-37.980;-63.602;2023-02-01T13:57:02;22.50;99.90
59961;DHT22;55902;-37.980;-63.602;2023-02-01T13:59:50;22.50;99.90
59961;DHT22;55902;-37.980;-63.602;2023-02-01T14:02:46;22.50;99.90
59961;DHT22;55902;-37.980;-63.602;2023-02-01T14:08:12;22.50;99.90
59961;DHT22;55902;-37.980;-63.602;2023-02-01T14:21:19;22.40;99.90
59961;DHT22;55902;-37.980;-63.602;2023-02-01T14:24:01;22.50;99.90
59961;DHT22;55902;-37.980;-63.602;2023-02-01T14:29:18;22.50;99.90
59961;DHT22;55902;-37.980;-63.602;2023-02-01T14:37:30;22.70;99.90
59961;DHT22;55902;-37.980;-63.602;2023-02-01T14:50:53;23.00;99.90
59961;DHT22;55902;-37.980;-63.602;2023-02-01T14:53:49;23.20;99.90
59961;DHT22;55902;-37.980;-63.602;2023-02-01T14:56:27;23.20;99.90
59961;DHT22;55902;-37.980;-63.602;2023-02-01T15:01:38;23.20;99.90
59961;DHT22;55902;-37.980;-63.602;2023-02-01T15:04:15;23.20;99.90
59961;DHT22;55902;-37.980;-63.602;2023-02-01T15:09:15;23.00;99.90
59961;DHT22;55902;-37.980;-63.602;2023-02-01T15:15:24;23.10;99.90
59961;DHT22;55902;-37.980;-63.602;2023-02-01T15:17:58;23.20;99.90
59961;DHT22;55902;-37.980;-63.602;2023-02-01T15:20:38;23.40;99.90
59961;DHT22;55902;-37.980;-63.602;2023-02-01T15:27:08;23.70;99.90
59961;DHT22;55902;-37.980;-63.602;2023-02-01T15:29:40;23.90;99.90
59961;DHT22;55902;-37.980;-63.602;2023-02-01T15:32:34;24.00;99.90
59961;DHT22;55902;-37.980;-63.602;2023-02-01T15:35:05;24.10;99.90
59961;DHT22;55902;-37.980;-63.602;2023-02-01T15:37:32;24.10;99.90
59961;DHT22;55902;-37.980;-63.602;2023-02-01T15:45:56;24.50;99.90
59961;DHT22;55902;-37.980;-63.602;2023-02-01T15:48:40;24.70;99.90
59961;DHT22;55902;-37.980;-63.602;2023-02-01T15:51:13;24.70;99.90
59961;DHT22;55902;-37.980;-63.602;2023-02-01T15:53:48;24.70;99.90
59961;DHT22;55902;-37.980;-63.602;2023-02-01T15:56:20;24.70;99.90
59961;DHT22;55902;-37.980;-63.602;2023-02-01T15:58:57;24.80;99.90
59961;DHT22;55902;-37.980;-63.602;2023-02-01T16:01:25;24.90;99.90
59961;DHT22;55902;-37.980;-63.602;2023-02-01T16:06:32;25.20;99.90
59961;DHT22;55902;-37.980;-63.602;2023-02-01T16:09:12;25.50;99.90
59961;DHT22;55902;-37.980;-63.602;2023-02-01T16:11:59;25.60;99.90
59961;DHT22;55902;-37.980;-63.602;2023-02-01T16:14:26;25.70;99.90
59961;DHT22;55902;-37.980;-63.602;2023-02-01T16:16:56;25.80;99.90
59961;DHT22;55902;-37.980;-63.602;2023-02-01T16:19:24;25.90;99.90
59961;DHT22;55902;-37.980;-63.602;2023-02-01T16:21:57;26.20;99.90
59961;DHT22;55902;-37.980;-63.602;2023-02-01T16:24:25;26.50;99.90
59961;DHT22;55902;-37.980;-63.602;2023-02-01T16:26:52;26.70;99.90
59961;DHT22;55902;-37.980;-63.602;2023-02-01T16:29:19;26.90;99.90
59961;DHT22;55902;-37.980;-63.602;2023-02-01T16:31:49;27.20;99.90
59961;DHT22;55902;-37.980;-63.602;2023-02-01T16:34:16;27.40;99.90
59961;DHT22;55902;-37.980;-63.602;2023-02-01T16:36:48;27.40;99.90
59961;DHT22;55902;-37.980;-63.602;2023-02-01T16:39:19;27.30;99.90
59961;DHT22;55902;-37.980;-63.602;2023-02-01T16:41:51;27.10;99.90
59961;DHT22;55902;-37.980;-63.602;2023-02-01T16:44:19;27.00;99.90
59961;DHT22;55902;-37.980;-63.602;2023-02-01T16:46:47;26.90;99.90
59961;DHT22;55902;-37.980;-63.602;2023-02-01T16:49:23;26.80;99.90
59961;DHT22;55902;-37.980;-63.602;2023-02-01T16:51:57;26.60;99.90
59961;DHT22;55902;-37.980;-63.602;2023-02-01T16:54:25;26.50;99.90
59961;DHT22;55902;-37.980;-63.602;2023-02-01T16:56:58;26.40;99.90
59961;DHT22;55902;-37.980;-63.602;2023-02-01T16:59:29;26.40;99.90
59961;DHT22;55902;-37.980;-63.602;2023-02-01T17:01:59;26.30;99.90
59961;DHT22;55902;-37.980;-63.602;2023-02-01T17:04:29;26.40;99.90
59961;DHT22;55902;-37.980;-63.602;2023-02-01T17:06:56;26.40;99.90
59961;DHT22;55902;-37.980;-63.602;2023-02-01T17:09:24;26.50;99.90
59961;DHT22;55902;-37.980;-63.602;2023-02-01T17:11:51;26.70;99.90
59961;DHT22;55902;-37.980;-63.602;2023-02-01T17:14:22;26.90;99.90
59961;DHT22;55902;-37.980;-63.602;2023-02-01T17:16:51;27.10;99.90
59961;DHT22;55902;-37.980;-63.602;2023-02-01T17:19:20;27.20;99.90
59961;DHT22;55902;-37.980;-63.602;2023-02-01T17:21:53;27.20;99.90
59961;DHT22;55902;-37.980;-63.602;2023-02-01T17:34:27;26.50;99.90
59961;DHT22;55902;-37.980;-63.602;2023-02-01T17:36:57;26.30;99.90
59961;DHT22;55902;-37.980;-63.602;2023-02-01T17:39:24;26.20;99.90
59961;DHT22;55902;-37.980;-63.602;2023-02-01T17:42:12;26.00;99.90
59961;DHT22;55902;-37.980;-63.602;2023-02-01T17:44:39;25.90;99.90
59961;DHT22;55902;-37.980;-63.602;2023-02-01T17:47:06;25.80;99.90
59961;DHT22;55902;-37.980;-63.602;2023-02-01T17:49:33;25.70;99.90
59961;DHT22;55902;-37.980;-63.602;2023-02-01T17:52:05;25.60;99.90
59961;DHT22;55902;-37.980;-63.602;2023-02-01T17:54:36;25.50;99.90
59961;DHT22;55902;-37.980;-63.602;2023-02-01T17:57:07;25.50;99.90
59961;DHT22;55902;-37.980;-63.602;2023-02-01T17:59:36;25.50;99.90
59961;DHT22;55902;-37.980;-63.602;2023-02-01T18:02:02;25.50;99.90
59961;DHT22;55902;-37.980;-63.602;2023-02-01T18:04:29;25.60;99.90
59961;DHT22;55902;-37.980;-63.602;2023-02-01T18:06:56;25.70;99.90
59961;DHT22;55902;-37.980;-63.602;2023-02-01T18:09:23;25.80;99.90
59961;DHT22;55902;-37.980;-63.602;2023-02-01T18:11:50;26.00;99.90
59961;DHT22;55902;-37.980;-63.602;2023-02-01T18:14:20;26.10;99.90
59961;DHT22;55902;-37.980;-63.602;2023-02-01T18:16:47;26.30;99.90
59961;DHT22;55902;-37.980;-63.602;2023-02-01T18:19:14;26.40;99.90
59961;DHT22;55902;-37.980;-63.602;2023-02-01T18:21:44;26.50;99.90
59961;DHT22;55902;-37.980;-63.602;2023-02-01T18:24:16;26.60;99.90
59961;DHT22;55902;-37.980;-63.602;2023-02-01T18:26:43;26.70;99.90
59961;DHT22;55902;-37.980;-63.602;2023-02-01T18:29:10;26.60;99.90
59961;DHT22;55902;-37.980;-63.602;2023-02-01T18:31:44;26.60;99.90
59961;DHT22;55902;-37.980;-63.602;2023-02-01T18:34:11;26.60;99.90
59961;DHT22;55902;-37.980;-63.602;2023-02-01T18:36:46;26.60;99.90
59961;DHT22;55902;-37.980;-63.602;2023-02-01T18:39:13;26.50;99.90
59961;DHT22;55902;-37.980;-63.602;2023-02-01T18:41:40;26.40;99.90
59961;DHT22;55902;-37.980;-63.602;2023-02-01T18:44:13;26.40;99.90
59961;DHT22;55902;-37.980;-63.602;2023-02-01T18:46:41;26.40;99.90
59961;DHT22;55902;-37.980;-63.602;2023-02-01T18:49:08;26.40;99.90
59961;DHT22;55902;-37.980;-63.602;2023-02-01T18:51:39;26.40;99.90
59961;DHT22;55902;-37.980;-63.602;2023-02-01T18:54:09;26.40;99.90